createdAt,value
2019-05-11T00:00:47.045Z,91.70
2019-05-11T00:03:16.687Z,91.70
2019-05-11T00:05:46.177Z,91.70
2019-05-11T00:08:15.883Z,91.90
2019-05-11T00:10:45.444Z,91.80
2019-05-11T00:13:14.939Z,92.20
2019-05-11T00:15:44.525Z,92.10
2019-05-11T00:18:14.367Z,91.90
2019-05-11T00:20:44.047Z,91.80
2019-05-11T00:23:13.535Z,91.70
2019-05-11T00:25:43.132Z,91.60
2019-05-11T00:28:13.191Z,91.70
2019-05-11T00:30:42.956Z,91.70
2019-05-11T00:33:13.534Z,91.70
2019-05-11T00:35:43.026Z,91.80
2019-05-11T00:38:12.601Z,91.80
2019-05-11T00:40:42.161Z,91.80
2019-05-11T00:43:11.763Z,92.00
2019-05-11T00:45:41.302Z,92.00
2019-05-11T00:48:10.933Z,92.00
2019-05-11T00:50:40.678Z,91.80
2019-05-11T00:53:10.323Z,91.90
2019-05-11T00:55:39.876Z,91.80
2019-05-11T00:58:11.412Z,91.90
2019-05-11T01:00:41.243Z,92.10
2019-05-11T01:03:11.957Z,92.50
2019-05-11T01:05:41.566Z,92.70
2019-05-11T01:08:11.173Z,93.00
2019-05-11T01:10:42.395Z,93.10
2019-05-11T01:13:12.076Z,93.30
2019-05-11T01:15:41.703Z,93.20
2019-05-11T01:18:11.348Z,93.00
2019-05-11T01:20:40.992Z,92.80
2019-05-11T01:23:10.550Z,92.70
2019-05-11T01:25:40.174Z,92.70
2019-05-11T01:28:09.778Z,93.00
2019-05-11T01:30:39.385Z,92.80
2019-05-11T01:33:09.123Z,92.80
2019-05-11T01:35:38.700Z,93.10
2019-05-11T01:38:08.414Z,92.80
2019-05-11T01:40:38.125Z,92.70
2019-05-11T01:43:07.712Z,92.60
2019-05-11T01:45:37.440Z,92.70
2019-05-11T01:48:07.082Z,92.50
2019-05-11T01:50:36.677Z,92.50
2019-05-11T01:53:06.475Z,92.50
2019-05-11T01:55:36.066Z,92.60
2019-05-11T01:58:05.700Z,92.60
2019-05-11T02:00:35.398Z,93.00
2019-05-11T02:03:05.030Z,92.70
2019-05-11T02:05:34.656Z,92.70
2019-05-11T02:08:04.425Z,92.80
2019-05-11T02:10:34.062Z,92.90
2019-05-11T02:13:03.757Z,92.80
2019-05-11T02:15:33.282Z,93.10
2019-05-11T02:18:03.096Z,93.10
2019-05-11T02:20:32.664Z,93.50
2019-05-11T02:23:02.235Z,93.90
2019-05-11T02:25:31.792Z,94.10
2019-05-11T02:28:01.320Z,94.40
2019-05-11T02:30:30.974Z,94.20
2019-05-11T02:33:01.529Z,94.30
2019-05-11T02:35:32.058Z,94.40
2019-05-11T02:38:01.717Z,94.30
2019-05-11T02:40:31.438Z,94.90
2019-05-11T02:43:01.022Z,94.50
2019-05-11T02:45:41.006Z,94.50
2019-05-11T02:48:10.818Z,94.60
2019-05-11T02:50:40.395Z,94.60
2019-05-11T02:53:10.449Z,95.20
2019-05-11T02:55:40.189Z,94.80
2019-05-11T02:58:09.967Z,95.00
2019-05-11T03:00:44.456Z,95.10
2019-05-11T03:03:14.162Z,94.70
2019-05-11T03:05:43.630Z,94.70
2019-05-11T03:08:13.352Z,95.10
2019-05-11T03:10:43.296Z,95.00
2019-05-11T03:13:12.961Z,95.00
2019-05-11T03:15:42.597Z,94.70
2019-05-11T03:18:12.224Z,94.90
2019-05-11T03:20:41.730Z,94.70
2019-05-11T03:23:11.234Z,94.70
2019-05-11T03:25:42.038Z,94.60
2019-05-11T03:28:11.551Z,94.40
2019-05-11T03:30:41.188Z,94.50
2019-05-11T03:33:10.728Z,94.60
2019-05-11T03:35:40.354Z,94.50
2019-05-11T03:38:09.937Z,94.40
2019-05-11T03:40:39.578Z,94.40
2019-05-11T03:43:09.210Z,94.70
2019-05-11T03:45:38.897Z,95.10
2019-05-11T03:48:08.537Z,95.20
2019-05-11T03:50:38.179Z,94.60
2019-05-11T03:53:07.809Z,94.80
2019-05-11T03:55:37.386Z,95.10
2019-05-11T03:58:06.933Z,95.10
2019-05-11T04:00:36.655Z,95.20
2019-05-11T04:03:06.250Z,95.30
2019-05-11T04:05:35.721Z,94.90
2019-05-11T04:08:05.404Z,94.90
2019-05-11T04:10:34.994Z,94.70
2019-05-11T04:13:04.580Z,94.50
2019-05-11T04:15:34.157Z,94.50
2019-05-11T04:18:03.716Z,94.50
2019-05-11T04:20:33.302Z,94.30
2019-05-11T04:23:02.882Z,94.30
2019-05-11T04:25:32.445Z,94.40
2019-05-11T04:28:02.007Z,94.40
2019-05-11T04:30:31.579Z,94.40
2019-05-11T04:33:01.141Z,94.30
2019-05-11T04:35:30.697Z,94.20
2019-05-11T04:38:00.270Z,94.00
2019-05-11T04:40:30.818Z,93.70
2019-05-11T04:43:01.554Z,93.50
2019-05-11T04:45:31.033Z,93.40
2019-05-11T04:48:00.606Z,93.30
2019-05-11T04:50:30.102Z,93.50
2019-05-11T04:52:59.679Z,93.60
2019-05-11T04:55:29.232Z,93.60
2019-05-11T04:57:58.809Z,93.40
2019-05-11T05:00:28.504Z,93.20
2019-05-11T05:02:58.077Z,93.10
2019-05-11T05:05:27.648Z,92.90
2019-05-11T05:08:08.495Z,92.70
2019-05-11T05:10:28.637Z,92.10
2019-05-11T05:13:10.239Z,91.70
2019-05-11T05:15:29.413Z,91.20
2019-05-11T05:17:59.054Z,90.70
2019-05-11T05:20:28.625Z,90.70
2019-05-11T05:22:58.223Z,90.80
2019-05-11T05:25:27.789Z,90.80
2019-05-11T05:27:57.425Z,90.80
2019-05-11T05:30:27.048Z,90.70
2019-05-11T05:32:56.626Z,90.90
2019-05-11T05:35:26.249Z,90.90
2019-05-11T05:37:55.823Z,90.50
2019-05-11T05:40:25.385Z,90.60
2019-05-11T05:42:54.914Z,90.30
2019-05-11T05:45:24.544Z,89.70
2019-05-11T05:47:54.188Z,90.00
2019-05-11T05:50:23.699Z,89.60
2019-05-11T05:52:53.334Z,89.50
2019-05-11T05:55:22.980Z,89.30
2019-05-11T05:57:52.474Z,88.30
2019-05-11T06:00:22.308Z,85.50
2019-05-11T06:02:51.838Z,82.40
2019-05-11T06:05:21.349Z,80.00
2019-05-11T06:07:51.090Z,78.80
2019-05-11T06:10:20.581Z,78.50
2019-05-11T06:12:50.152Z,77.90
2019-05-11T06:15:19.982Z,77.80
2019-05-11T06:17:49.614Z,78.90
2019-05-11T06:20:19.298Z,78.70
2019-05-11T06:22:48.792Z,79.30
2019-05-11T06:25:18.565Z,80.70
2019-05-11T06:27:48.330Z,80.80
2019-05-11T06:30:19.045Z,80.10
2019-05-11T06:32:48.700Z,78.90
2019-05-11T06:35:18.281Z,80.00
2019-05-11T06:37:47.853Z,79.60
2019-05-11T06:40:17.590Z,77.70
2019-05-11T06:42:47.228Z,77.20
2019-05-11T06:45:17.729Z,77.40
2019-05-11T06:47:47.371Z,75.80
2019-05-11T06:50:17.048Z,75.00
2019-05-11T06:52:46.902Z,74.40
2019-05-11T06:55:16.465Z,72.40
2019-05-11T06:57:46.181Z,73.40
2019-05-11T07:00:16.182Z,75.00
2019-05-11T07:02:45.820Z,75.50
2019-05-11T07:05:15.513Z,73.40
2019-05-11T07:07:47.558Z,72.40
2019-05-11T07:10:16.555Z,69.10
2019-05-11T07:12:46.213Z,66.40
2019-05-11T07:15:15.907Z,66.80
2019-05-11T07:17:45.547Z,67.40
2019-05-11T07:20:15.277Z,66.70
2019-05-11T07:22:44.819Z,58.20
2019-05-11T07:25:14.713Z,46.30
2019-05-11T07:27:44.216Z,38.40
2019-05-11T07:30:14.258Z,34.00
2019-05-11T07:32:44.107Z,38.60
2019-05-11T07:35:14.011Z,48.60
2019-05-11T07:37:43.654Z,55.50
2019-05-11T07:40:13.520Z,59.30
2019-05-11T07:42:43.222Z,63.00
2019-05-11T07:45:13.870Z,63.60
2019-05-11T07:47:43.513Z,65.50
2019-05-11T07:50:13.327Z,67.20
2019-05-11T07:52:42.894Z,67.90
2019-05-11T07:55:12.833Z,69.20
2019-05-11T07:57:42.538Z,69.60
2019-05-11T08:00:12.357Z,69.10
2019-05-11T08:02:42.071Z,68.60
2019-05-11T08:05:11.906Z,66.10
2019-05-11T08:07:41.655Z,64.10
2019-05-11T08:10:11.919Z,58.40
2019-05-11T08:12:41.621Z,57.90
2019-05-11T08:15:13.581Z,58.90
2019-05-11T08:17:42.854Z,58.30
2019-05-11T08:20:12.971Z,57.40
2019-05-11T08:22:42.735Z,57.70
2019-05-11T08:25:12.483Z,57.40
2019-05-11T08:27:42.234Z,57.30
2019-05-11T08:30:12.729Z,55.00
2019-05-11T08:32:42.304Z,54.80
2019-05-11T08:35:12.083Z,54.10
2019-05-11T08:37:41.724Z,53.50
2019-05-11T08:40:18.323Z,53.00
2019-05-11T08:42:48.385Z,51.30
2019-05-11T08:45:24.298Z,48.90
2019-05-11T08:47:49.353Z,46.80
2019-05-11T08:50:22.187Z,44.30
2019-05-11T08:52:51.947Z,44.30
2019-05-11T08:55:24.314Z,46.40
2019-05-11T08:57:53.881Z,48.10
2019-05-11T09:00:23.685Z,49.00
2019-05-11T09:02:53.353Z,49.20
2019-05-11T09:05:23.009Z,50.10
2019-05-11T09:07:52.507Z,51.00
2019-05-11T09:10:22.141Z,50.70
2019-05-11T09:12:53.404Z,50.50
2019-05-11T09:15:33.582Z,50.50
2019-05-11T09:17:54.084Z,50.70
2019-05-11T09:20:24.753Z,51.80
2019-05-11T09:22:54.312Z,52.50
2019-05-11T09:25:25.132Z,53.20
2019-05-11T09:27:54.756Z,53.30
2019-05-11T09:30:24.393Z,54.00
2019-05-11T09:32:53.964Z,53.60
2019-05-11T09:35:23.560Z,55.60
2019-05-11T09:37:53.193Z,55.70
2019-05-11T09:40:22.742Z,55.10
2019-05-11T09:42:52.437Z,55.70
2019-05-11T09:45:22.029Z,55.50
2019-05-11T09:47:51.589Z,58.20
2019-05-11T09:50:21.276Z,59.00
2019-05-11T09:52:50.838Z,58.70
2019-05-11T09:55:20.404Z,60.30
2019-05-11T09:57:50.144Z,61.30
2019-05-11T10:00:19.969Z,62.30
2019-05-11T10:02:49.689Z,62.90
2019-05-11T10:05:19.423Z,63.00
2019-05-11T10:07:49.055Z,63.20
2019-05-11T10:10:19.001Z,63.90
2019-05-11T10:12:52.669Z,63.90
2019-05-11T10:15:21.457Z,64.60
2019-05-11T10:17:51.169Z,65.90
2019-05-11T10:20:20.874Z,67.20
2019-05-11T10:22:50.429Z,67.50
2019-05-11T10:25:20.021Z,68.70
2019-05-11T10:27:49.585Z,69.40
2019-05-11T10:30:19.282Z,70.30
2019-05-11T10:32:49.322Z,72.10
2019-05-11T10:35:18.878Z,71.30
2019-05-11T10:37:48.457Z,70.80
2019-05-11T10:40:19.117Z,69.40
2019-05-11T10:42:48.873Z,68.30
2019-05-11T10:45:18.561Z,68.00
2019-05-11T10:47:48.973Z,65.80
2019-05-11T10:50:19.107Z,66.00
2019-05-11T10:52:48.952Z,64.00
2019-05-11T10:55:19.473Z,63.90
2019-05-11T10:57:49.587Z,62.70
2019-05-11T11:00:20.973Z,62.30
2019-05-11T11:02:50.667Z,61.60
2019-05-11T11:05:20.480Z,61.90
2019-05-11T11:07:50.048Z,61.90
2019-05-11T11:10:19.762Z,61.90
2019-05-11T11:12:49.324Z,62.20
2019-05-11T11:15:19.343Z,62.40
2019-05-11T11:17:48.964Z,61.60
2019-05-11T11:20:18.874Z,59.70
2019-05-11T11:22:48.929Z,57.50
2019-05-11T11:25:18.638Z,56.60
2019-05-11T11:27:48.846Z,55.00
2019-05-11T11:30:19.306Z,55.30
2019-05-11T11:32:48.965Z,54.10
2019-05-11T11:35:18.849Z,53.00
2019-05-11T11:37:49.681Z,54.90
2019-05-11T11:40:19.499Z,54.90
2019-05-11T11:42:49.231Z,53.40
2019-05-11T11:45:19.197Z,51.70
2019-05-11T11:47:49.523Z,51.80
2019-05-11T11:50:20.742Z,52.90
2019-05-11T11:52:50.623Z,52.60
2019-05-11T11:55:20.262Z,52.80
2019-05-11T11:57:50.498Z,53.80
2019-05-11T12:00:20.380Z,54.90
2019-05-11T12:02:52.697Z,54.60
2019-05-11T12:05:22.253Z,54.10
2019-05-11T12:07:51.817Z,52.90
2019-05-11T12:10:24.552Z,53.00
2019-05-11T12:12:54.327Z,52.10
2019-05-11T12:15:25.149Z,53.10
2019-05-11T12:17:54.657Z,53.10
2019-05-11T12:20:28.628Z,52.90
2019-05-11T12:22:58.264Z,53.90
2019-05-11T12:25:28.027Z,55.50
2019-05-11T12:27:59.175Z,55.00
2019-05-11T12:30:28.808Z,52.80
2019-05-11T12:32:59.005Z,51.00
2019-05-11T12:35:28.637Z,49.30
2019-05-11T12:37:59.088Z,49.40
2019-05-11T12:40:29.845Z,49.10
2019-05-11T12:42:59.406Z,50.40
2019-05-11T12:45:29.683Z,50.50
2019-05-11T12:48:00.293Z,51.20
2019-05-11T12:50:29.926Z,50.20
2019-05-11T12:53:00.930Z,52.10
2019-05-11T12:55:30.570Z,52.60
2019-05-11T12:58:00.169Z,52.60
2019-05-11T13:00:31.381Z,52.30
2019-05-11T13:03:01.308Z,53.60
2019-05-11T13:05:30.874Z,52.30
2019-05-11T13:08:00.522Z,53.20
2019-05-11T13:10:30.188Z,54.10
2019-05-11T13:13:02.582Z,54.60
2019-05-11T13:15:31.424Z,54.80
2019-05-11T13:18:01.031Z,54.50
2019-05-11T13:20:30.733Z,53.10
2019-05-11T13:23:00.450Z,52.50
2019-05-11T13:25:30.052Z,51.70
2019-05-11T13:28:01.405Z,50.50
2019-05-11T13:30:31.180Z,51.60
2019-05-11T13:33:00.744Z,51.40
2019-05-11T13:35:30.429Z,51.70
2019-05-11T13:38:00.014Z,52.20
2019-05-11T13:40:29.572Z,50.80
2019-05-11T13:42:59.140Z,51.00
2019-05-11T13:45:28.703Z,51.80
2019-05-11T13:47:59.323Z,52.40
2019-05-11T13:50:29.615Z,52.10
2019-05-11T13:52:59.630Z,53.70
2019-05-11T13:55:29.243Z,54.50
2019-05-11T13:57:58.876Z,54.30
2019-05-11T14:00:28.970Z,54.20
2019-05-11T14:03:00.790Z,54.70
2019-05-11T14:05:30.493Z,55.60
2019-05-11T14:08:00.144Z,55.90
2019-05-11T14:10:29.858Z,56.10
2019-05-11T14:12:59.348Z,57.00
2019-05-11T14:15:29.010Z,56.90
2019-05-11T14:18:07.702Z,55.90
2019-05-11T14:20:31.320Z,56.40
2019-05-11T14:23:00.971Z,56.80
2019-05-11T14:25:30.677Z,56.80
2019-05-11T14:28:00.390Z,56.80
2019-05-11T14:30:30.107Z,57.60
2019-05-11T14:32:59.697Z,57.70
2019-05-11T14:35:29.252Z,57.00
2019-05-11T14:37:58.963Z,56.60
2019-05-11T14:40:28.521Z,56.00
2019-05-11T14:42:58.290Z,56.20
2019-05-11T14:45:28.837Z,57.30
2019-05-11T14:47:58.725Z,57.60
2019-05-11T14:50:29.832Z,58.10
2019-05-11T14:52:59.316Z,59.00
2019-05-11T14:55:29.181Z,60.10
2019-05-11T14:57:58.669Z,60.60
2019-05-11T15:00:28.953Z,61.30
2019-05-11T15:02:58.759Z,62.10
2019-05-11T15:05:28.522Z,62.50
2019-05-11T15:07:58.296Z,62.70
2019-05-11T15:10:28.008Z,62.40
2019-05-11T15:12:59.074Z,62.10
2019-05-11T15:15:29.083Z,61.60
2019-05-11T15:17:58.897Z,60.80
2019-05-11T15:20:28.807Z,60.10
2019-05-11T15:22:58.520Z,59.20
2019-05-11T15:25:28.833Z,58.70
2019-05-11T15:28:00.025Z,58.40
2019-05-11T15:30:31.300Z,58.20
2019-05-11T15:33:00.926Z,58.20
2019-05-11T15:35:30.429Z,59.60
2019-05-11T15:37:59.985Z,59.10
2019-05-11T15:40:29.573Z,59.60
2019-05-11T15:42:59.157Z,61.10
2019-05-11T15:45:28.717Z,60.60
2019-05-11T15:47:59.064Z,60.90
2019-05-11T15:50:29.219Z,61.60
2019-05-11T15:52:59.009Z,62.00
2019-05-11T15:55:28.569Z,61.80
2019-05-11T15:57:59.204Z,61.50
2019-05-11T16:00:28.776Z,61.90
2019-05-11T16:02:58.402Z,64.20
2019-05-11T16:05:28.486Z,65.70
2019-05-11T16:07:58.847Z,69.00
2019-05-11T16:10:29.385Z,70.30
2019-05-11T16:12:58.878Z,67.30
2019-05-11T16:15:30.494Z,69.00
2019-05-11T16:18:00.141Z,69.00
2019-05-11T16:20:29.784Z,71.10
2019-05-11T16:22:59.357Z,71.40
2019-05-11T16:25:28.929Z,73.20
2019-05-11T16:27:58.669Z,74.40
2019-05-11T16:30:28.852Z,74.30
2019-05-11T16:32:58.496Z,72.50
2019-05-11T16:35:28.189Z,72.60
2019-05-11T16:37:59.188Z,74.70
2019-05-11T16:40:29.654Z,74.90
2019-05-11T16:42:59.340Z,74.60
2019-05-11T16:45:29.564Z,74.10
2019-05-11T16:47:59.145Z,75.00
2019-05-11T16:50:28.879Z,74.80
2019-05-11T16:52:58.674Z,75.00
2019-05-11T16:55:28.245Z,74.90
2019-05-11T16:57:58.778Z,76.20
2019-05-11T17:00:28.617Z,74.70
2019-05-11T17:02:58.127Z,75.30
2019-05-11T17:05:33.408Z,75.40
2019-05-11T17:07:59.020Z,75.70
2019-05-11T17:10:28.573Z,75.40
2019-05-11T17:12:59.255Z,74.90
2019-05-11T17:15:29.013Z,74.40
2019-05-11T17:17:58.900Z,74.20
2019-05-11T17:20:28.541Z,74.50
2019-05-11T17:22:58.179Z,75.00
2019-05-11T17:25:28.802Z,75.10
2019-05-11T17:27:59.722Z,75.20
2019-05-11T17:30:29.519Z,74.70
2019-05-11T17:32:59.450Z,75.10
2019-05-11T17:35:29.084Z,75.10
2019-05-11T17:37:58.749Z,75.80
2019-05-11T17:40:28.608Z,76.10
2019-05-11T17:42:58.630Z,76.20
2019-05-11T17:45:28.118Z,76.40
2019-05-11T17:47:58.324Z,76.80
2019-05-11T17:50:28.285Z,76.50
2019-05-11T17:52:57.860Z,77.20
2019-05-11T17:55:28.683Z,77.60
2019-05-11T17:57:58.443Z,77.70
2019-05-11T18:00:28.500Z,79.60
2019-05-11T18:02:58.425Z,80.90
2019-05-11T18:05:28.261Z,84.80
2019-05-11T18:07:58.083Z,87.00
2019-05-11T18:10:28.303Z,87.60
2019-05-11T18:12:59.201Z,90.40
2019-05-11T18:15:28.772Z,90.70
2019-05-11T18:17:58.857Z,86.70
2019-05-11T18:20:28.829Z,89.70
2019-05-11T18:22:59.069Z,91.10
2019-05-11T18:25:28.935Z,92.80
2019-05-11T18:27:58.789Z,94.00
2019-05-11T18:30:29.332Z,94.40
2019-05-11T18:33:00.281Z,94.70
2019-05-11T18:35:29.855Z,94.40
2019-05-11T18:37:59.421Z,95.20
2019-05-11T18:40:28.915Z,94.80
2019-05-11T18:42:58.554Z,95.70
2019-05-11T18:45:28.842Z,95.20
2019-05-11T18:47:58.620Z,94.80
2019-05-11T18:50:31.212Z,95.70
2019-05-11T18:53:01.036Z,94.10
2019-05-11T18:55:30.597Z,95.10
2019-05-11T18:58:00.301Z,95.20
2019-05-11T19:00:29.946Z,95.00
2019-05-11T19:02:59.517Z,94.50
2019-05-11T19:05:29.267Z,95.20
2019-05-11T19:07:58.799Z,94.70
2019-05-11T19:10:28.418Z,95.00
2019-05-11T19:12:58.971Z,95.80
2019-05-11T19:15:30.207Z,96.50
2019-05-11T19:17:59.836Z,96.60
2019-05-11T19:20:44.637Z,96.40
2019-05-11T19:23:03.741Z,96.40
2019-05-11T19:25:33.405Z,96.50
2019-05-11T19:28:03.041Z,96.00
2019-05-11T19:30:32.750Z,95.50
2019-05-11T19:33:02.236Z,96.20
2019-05-11T19:35:33.437Z,94.90
2019-05-11T19:38:03.207Z,95.20
2019-05-11T19:40:32.765Z,94.60
2019-05-11T19:43:02.424Z,94.80
2019-05-11T19:45:32.140Z,94.50
2019-05-11T19:48:03.311Z,92.50
2019-05-11T19:50:32.953Z,90.80
2019-05-11T19:53:02.667Z,88.20
2019-05-11T19:55:32.333Z,87.60
2019-05-11T19:58:02.267Z,88.00
2019-05-11T20:00:34.563Z,89.40
2019-05-11T20:03:08.825Z,87.30
2019-05-11T20:05:38.178Z,88.00
2019-05-11T20:08:08.040Z,87.20
2019-05-11T20:10:38.354Z,87.40
2019-05-11T20:13:08.219Z,83.00
2019-05-11T20:15:38.293Z,83.30
2019-05-11T20:18:10.762Z,81.30
2019-05-11T20:20:41.546Z,78.00
2019-05-11T20:23:11.109Z,77.00
2019-05-11T20:25:41.697Z,78.00
2019-05-11T20:28:11.200Z,77.60
2019-05-11T20:30:40.825Z,79.20
2019-05-11T20:33:10.421Z,82.30
2019-05-11T20:35:40.126Z,88.80
2019-05-11T20:38:09.841Z,90.20
2019-05-11T20:40:40.507Z,90.70
2019-05-11T20:43:10.186Z,91.00
2019-05-11T20:45:39.816Z,86.80
2019-05-11T20:48:09.512Z,89.50
2019-05-11T20:50:39.133Z,88.80
2019-05-11T20:53:08.837Z,88.70
2019-05-11T20:55:38.468Z,88.10
2019-05-11T20:58:08.638Z,88.10
2019-05-11T21:00:39.945Z,86.00
2019-05-11T21:03:09.715Z,81.80
2019-05-11T21:05:39.341Z,80.80
2019-05-11T21:08:08.840Z,82.00
2019-05-11T21:10:38.735Z,80.40
2019-05-11T21:13:08.772Z,80.10
2019-05-11T21:15:38.719Z,79.40
2019-05-11T21:18:08.293Z,82.40
2019-05-11T21:20:38.225Z,89.10
2019-05-11T21:23:08.317Z,90.80
2019-05-11T21:25:38.099Z,92.10
2019-05-11T21:28:08.532Z,92.60
2019-05-11T21:30:39.999Z,93.10
2019-05-11T21:33:09.765Z,93.20
2019-05-11T21:35:39.397Z,93.20
2019-05-11T21:38:09.030Z,93.40
2019-05-11T21:40:39.566Z,93.20
2019-05-11T21:43:09.054Z,93.30
2019-05-11T21:45:40.755Z,93.50
2019-05-11T21:48:09.819Z,93.70
2019-05-11T21:50:41.562Z,93.40
2019-05-11T21:53:11.257Z,93.40
2019-05-11T21:55:40.741Z,93.60
2019-05-11T21:58:10.320Z,93.80
2019-05-11T22:00:40.236Z,93.70
2019-05-11T22:03:10.520Z,94.30
2019-05-11T22:05:41.134Z,94.30
2019-05-11T22:08:10.829Z,94.30
2019-05-11T22:10:41.544Z,94.50
2019-05-11T22:13:11.124Z,94.70
2019-05-11T22:15:40.928Z,95.10
2019-05-11T22:18:10.642Z,94.90
2019-05-11T22:20:41.004Z,95.10
2019-05-11T22:23:10.881Z,95.20
2019-05-11T22:25:40.537Z,95.10
2019-05-11T22:28:10.200Z,95.40
2019-05-11T22:30:39.706Z,95.20
2019-05-11T22:33:09.417Z,95.40
2019-05-11T22:35:39.214Z,95.20
2019-05-11T22:38:09.041Z,95.10
2019-05-11T22:40:38.664Z,94.60
2019-05-11T22:43:09.357Z,95.00
2019-05-11T22:45:40.362Z,95.10
2019-05-11T22:48:10.002Z,95.00
2019-05-11T22:50:39.561Z,94.90
2019-05-11T22:53:11.585Z,94.90
2019-05-11T22:55:40.376Z,94.80
2019-05-11T22:58:10.014Z,95.00
2019-05-11T23:00:41.639Z,94.80
2019-05-11T23:03:11.574Z,94.90
2019-05-11T23:05:42.206Z,94.40
2019-05-11T23:08:12.012Z,94.50
2019-05-11T23:10:41.706Z,94.50
2019-05-11T23:13:11.730Z,94.30
2019-05-11T23:15:41.661Z,94.50
2019-05-11T23:18:11.221Z,95.00
2019-05-11T23:20:40.853Z,95.30
2019-05-11T23:23:10.486Z,94.70
2019-05-11T23:25:40.044Z,94.70
2019-05-11T23:28:09.598Z,93.90
2019-05-11T23:30:39.234Z,93.60
2019-05-11T23:33:08.792Z,93.00
2019-05-11T23:35:38.586Z,92.90
2019-05-11T23:38:08.235Z,92.80
2019-05-11T23:40:38.147Z,92.70
2019-05-11T23:43:08.636Z,93.40
2019-05-11T23:45:38.571Z,94.00
2019-05-11T23:48:08.404Z,93.90
2019-05-11T23:50:38.725Z,94.10
2019-05-11T23:53:10.135Z,94.00
2019-05-11T23:55:39.670Z,93.40
2019-05-11T23:58:09.316Z,93.10
